sensor_id;sensor_type;location;lat;lon;timestamp;P1;durP1;ratioP1;P2;durP2;ratioP2
17832;SDS011;9041;49.718;21.798;2023-05-10T00:01:29;4.53;;;2.70;;
17832;SDS011;9041;49.718;21.798;2023-05-10T00:03:56;4.07;;;2.57;;
17832;SDS011;9041;49.718;21.798;2023-05-10T00:06:23;4.97;;;3.07;;
17832;SDS011;9041;49.718;21.798;2023-05-10T00:08:51;8.17;;;3.07;;
17832;SDS011;9041;49.718;21.798;2023-05-10T00:11:18;5.40;;;2.90;;
17832;SDS011;9041;49.718;21.798;2023-05-10T00:13:45;6.27;;;3.20;;
17832;SDS011;9041;49.718;21.798;2023-05-10T00:16:12;4.47;;;2.87;;
17832;SDS011;9041;49.718;21.798;2023-05-10T00:18:39;4.97;;;3.00;;
17832;SDS011;9041;49.718;21.798;2023-05-10T00:21:06;6.10;;;3.07;;
17832;SDS011;9041;49.718;21.798;2023-05-10T00:23:33;7.03;;;3.20;;
17832;SDS011;9041;49.718;21.798;2023-05-10T00:26:01;7.37;;;3.30;;
17832;SDS011;9041;49.718;21.798;2023-05-10T00:28:28;6.33;;;3.30;;
17832;SDS011;9041;49.718;21.798;2023-05-10T00:30:55;5.43;;;3.23;;
17832;SDS011;9041;49.718;21.798;2023-05-10T00:33:21;7.37;;;3.10;;
17832;SDS011;9041;49.718;21.798;2023-05-10T00:35:48;8.60;;;3.23;;
17832;SDS011;9041;49.718;21.798;2023-05-10T00:38:15;5.30;;;2.70;;
17832;SDS011;9041;49.718;21.798;2023-05-10T00:40:42;5.53;;;3.30;;
17832;SDS011;9041;49.718;21.798;2023-05-10T00:43:10;7.67;;;3.50;;
17832;SDS011;9041;49.718;21.798;2023-05-10T00:45:37;7.53;;;4.00;;
17832;SDS011;9041;49.718;21.798;2023-05-10T00:48:06;11.40;;;3.03;;
17832;SDS011;9041;49.718;21.798;2023-05-10T00:50:33;4.67;;;2.90;;
17832;SDS011;9041;49.718;21.798;2023-05-10T00:53:00;4.60;;;3.20;;
17832;SDS011;9041;49.718;21.798;2023-05-10T00:55:28;4.60;;;2.90;;
17832;SDS011;9041;49.718;21.798;2023-05-10T00:57:55;6.60;;;2.97;;
17832;SDS011;9041;49.718;21.798;2023-05-10T01:00:23;6.57;;;3.30;;
17832;SDS011;9041;49.718;21.798;2023-05-10T01:02:50;8.97;;;3.07;;
17832;SDS011;9041;49.718;21.798;2023-05-10T01:05:19;6.47;;;3.27;;
17832;SDS011;9041;49.718;21.798;2023-05-10T01:07:46;5.77;;;2.80;;
17832;SDS011;9041;49.718;21.798;2023-05-10T01:10:13;4.53;;;2.77;;
17832;SDS011;9041;49.718;21.798;2023-05-10T01:12:41;5.00;;;2.80;;
17832;SDS011;9041;49.718;21.798;2023-05-10T01:15:09;5.60;;;3.03;;
17832;SDS011;9041;49.718;21.798;2023-05-10T01:17:39;5.77;;;3.30;;
17832;SDS011;9041;49.718;21.798;2023-05-10T01:20:07;6.43;;;3.00;;
17832;SDS011;9041;49.718;21.798;2023-05-10T01:22:49;7.07;;;2.90;;
17832;SDS011;9041;49.718;21.798;2023-05-10T01:26:02;5.30;;;3.10;;
17832;SDS011;9041;49.718;21.798;2023-05-10T01:28:42;6.47;;;3.00;;
17832;SDS011;9041;49.718;21.798;2023-05-10T01:31:34;4.17;;;2.73;;
17832;SDS011;9041;49.718;21.798;2023-05-10T01:34:23;4.03;;;2.67;;
17832;SDS011;9041;49.718;21.798;2023-05-10T01:36:53;6.20;;;2.90;;
17832;SDS011;9041;49.718;21.798;2023-05-10T01:39:23;4.20;;;2.77;;
17832;SDS011;9041;49.718;21.798;2023-05-10T01:41:52;5.33;;;3.07;;
17832;SDS011;9041;49.718;21.798;2023-05-10T01:44:24;7.30;;;3.20;;
17832;SDS011;9041;49.718;21.798;2023-05-10T01:46:57;5.03;;;3.07;;
17832;SDS011;9041;49.718;21.798;2023-05-10T01:49:29;4.43;;;3.00;;
17832;SDS011;9041;49.718;21.798;2023-05-10T01:51:58;6.93;;;3.50;;
17832;SDS011;9041;49.718;21.798;2023-05-10T01:54:26;7.67;;;3.07;;
17832;SDS011;9041;49.718;21.798;2023-05-10T01:56:55;9.37;;;3.30;;
17832;SDS011;9041;49.718;21.798;2023-05-10T01:59:25;5.47;;;3.07;;
17832;SDS011;9041;49.718;21.798;2023-05-10T02:01:54;5.40;;;2.70;;
17832;SDS011;9041;49.718;21.798;2023-05-10T02:04:22;6.37;;;3.33;;
17832;SDS011;9041;49.718;21.798;2023-05-10T02:06:52;5.80;;;2.97;;
17832;SDS011;9041;49.718;21.798;2023-05-10T02:09:19;7.03;;;3.30;;
17832;SDS011;9041;49.718;21.798;2023-05-10T02:11:47;5.63;;;2.93;;
17832;SDS011;9041;49.718;21.798;2023-05-10T02:14:15;5.13;;;3.20;;
17832;SDS011;9041;49.718;21.798;2023-05-10T02:16:42;6.07;;;3.17;;
17832;SDS011;9041;49.718;21.798;2023-05-10T02:19:09;5.17;;;3.10;;
17832;SDS011;9041;49.718;21.798;2023-05-10T02:21:37;8.30;;;3.53;;
17832;SDS011;9041;49.718;21.798;2023-05-10T02:24:05;7.03;;;3.03;;
17832;SDS011;9041;49.718;21.798;2023-05-10T02:26:34;4.57;;;3.33;;
17832;SDS011;9041;49.718;21.798;2023-05-10T02:29:01;6.13;;;3.43;;
17832;SDS011;9041;49.718;21.798;2023-05-10T02:31:29;4.40;;;2.97;;
17832;SDS011;9041;49.718;21.798;2023-05-10T02:33:57;5.53;;;3.40;;
17832;SDS011;9041;49.718;21.798;2023-05-10T02:36:24;7.90;;;3.10;;
17832;SDS011;9041;49.718;21.798;2023-05-10T02:38:52;8.83;;;3.50;;
17832;SDS011;9041;49.718;21.798;2023-05-10T02:41:21;5.80;;;3.20;;
17832;SDS011;9041;49.718;21.798;2023-05-10T02:43:49;5.07;;;3.03;;
17832;SDS011;9041;49.718;21.798;2023-05-10T02:46:17;6.47;;;3.07;;
17832;SDS011;9041;49.718;21.798;2023-05-10T02:48:44;6.60;;;2.93;;
17832;SDS011;9041;49.718;21.798;2023-05-10T02:51:11;9.03;;;3.43;;
17832;SDS011;9041;49.718;21.798;2023-05-10T02:53:40;4.73;;;3.13;;
17832;SDS011;9041;49.718;21.798;2023-05-10T02:56:09;7.80;;;3.27;;
17832;SDS011;9041;49.718;21.798;2023-05-10T02:58:41;5.17;;;3.17;;
17832;SDS011;9041;49.718;21.798;2023-05-10T03:01:08;7.77;;;4.00;;
17832;SDS011;9041;49.718;21.798;2023-05-10T03:03:35;7.33;;;3.70;;
17832;SDS011;9041;49.718;21.798;2023-05-10T03:06:02;10.30;;;3.83;;
17832;SDS011;9041;49.718;21.798;2023-05-10T03:08:29;11.47;;;3.87;;
17832;SDS011;9041;49.718;21.798;2023-05-10T03:11:01;5.67;;;3.30;;
17832;SDS011;9041;49.718;21.798;2023-05-10T03:13:36;10.63;;;3.90;;
17832;SDS011;9041;49.718;21.798;2023-05-10T03:16:11;4.77;;;3.17;;
17832;SDS011;9041;49.718;21.798;2023-05-10T03:18:42;4.17;;;2.80;;
17832;SDS011;9041;49.718;21.798;2023-05-10T03:21:11;6.30;;;3.83;;
17832;SDS011;9041;49.718;21.798;2023-05-10T03:23:40;8.90;;;4.23;;
17832;SDS011;9041;49.718;21.798;2023-05-10T03:26:08;10.10;;;4.20;;
17832;SDS011;9041;49.718;21.798;2023-05-10T03:28:35;11.43;;;4.37;;
17832;SDS011;9041;49.718;21.798;2023-05-10T03:31:03;6.90;;;3.80;;
17832;SDS011;9041;49.718;21.798;2023-05-10T03:33:31;9.20;;;3.90;;
17832;SDS011;9041;49.718;21.798;2023-05-10T03:35:58;8.83;;;4.10;;
17832;SDS011;9041;49.718;21.798;2023-05-10T03:38:25;8.43;;;4.20;;
17832;SDS011;9041;49.718;21.798;2023-05-10T03:40:52;7.93;;;4.47;;
17832;SDS011;9041;49.718;21.798;2023-05-10T03:43:19;8.10;;;4.13;;
17832;SDS011;9041;49.718;21.798;2023-05-10T03:45:45;5.63;;;3.60;;
17832;SDS011;9041;49.718;21.798;2023-05-10T03:48:13;10.73;;;3.60;;
17832;SDS011;9041;49.718;21.798;2023-05-10T03:50:40;6.17;;;3.60;;
17832;SDS011;9041;49.718;21.798;2023-05-10T03:53:07;6.23;;;3.80;;
17832;SDS011;9041;49.718;21.798;2023-05-10T03:55:34;8.10;;;4.40;;
17832;SDS011;9041;49.718;21.798;2023-05-10T03:58:01;7.87;;;4.20;;
17832;SDS011;9041;49.718;21.798;2023-05-10T04:00:28;9.60;;;3.80;;
17832;SDS011;9041;49.718;21.798;2023-05-10T04:02:55;6.67;;;3.53;;
17832;SDS011;9041;49.718;21.798;2023-05-10T04:05:23;7.17;;;3.60;;
17832;SDS011;9041;49.718;21.798;2023-05-10T04:07:50;6.67;;;3.40;;
17832;SDS011;9041;49.718;21.798;2023-05-10T04:10:17;4.47;;;3.27;;
17832;SDS011;9041;49.718;21.798;2023-05-10T04:12:44;6.53;;;3.17;;
17832;SDS011;9041;49.718;21.798;2023-05-10T04:15:11;7.43;;;3.30;;
17832;SDS011;9041;49.718;21.798;2023-05-10T04:17:37;6.73;;;3.10;;
17832;SDS011;9041;49.718;21.798;2023-05-10T04:20:05;6.67;;;3.30;;
17832;SDS011;9041;49.718;21.798;2023-05-10T04:22:34;8.20;;;3.33;;
17832;SDS011;9041;49.718;21.798;2023-05-10T04:25:01;5.23;;;3.27;;
17832;SDS011;9041;49.718;21.798;2023-05-10T04:27:28;5.03;;;2.90;;
17832;SDS011;9041;49.718;21.798;2023-05-10T04:29:54;5.00;;;2.87;;
17832;SDS011;9041;49.718;21.798;2023-05-10T04:32:21;5.60;;;3.30;;
17832;SDS011;9041;49.718;21.798;2023-05-10T04:34:48;3.97;;;2.80;;
17832;SDS011;9041;49.718;21.798;2023-05-10T04:37:15;6.47;;;3.03;;
17832;SDS011;9041;49.718;21.798;2023-05-10T04:39:44;5.57;;;3.17;;
17832;SDS011;9041;49.718;21.798;2023-05-10T04:42:10;5.73;;;2.90;;
17832;SDS011;9041;49.718;21.798;2023-05-10T04:44:39;9.07;;;3.10;;
17832;SDS011;9041;49.718;21.798;2023-05-10T04:47:06;9.03;;;3.00;;
17832;SDS011;9041;49.718;21.798;2023-05-10T04:49:33;4.73;;;2.77;;
17832;SDS011;9041;49.718;21.798;2023-05-10T04:52:00;4.67;;;2.43;;
17832;SDS011;9041;49.718;21.798;2023-05-10T04:54:26;3.60;;;2.53;;
17832;SDS011;9041;49.718;21.798;2023-05-10T04:56:54;4.43;;;2.47;;
17832;SDS011;9041;49.718;21.798;2023-05-10T04:59:21;8.30;;;3.10;;
17832;SDS011;9041;49.718;21.798;2023-05-10T05:01:48;6.97;;;3.07;;
17832;SDS011;9041;49.718;21.798;2023-05-10T05:04:15;4.40;;;2.67;;
17832;SDS011;9041;49.718;21.798;2023-05-10T05:06:42;3.73;;;2.67;;
17832;SDS011;9041;49.718;21.798;2023-05-10T05:09:09;5.93;;;2.47;;
17832;SDS011;9041;49.718;21.798;2023-05-10T05:11:36;5.07;;;2.90;;
17832;SDS011;9041;49.718;21.798;2023-05-10T05:14:04;5.20;;;2.77;;
17832;SDS011;9041;49.718;21.798;2023-05-10T05:16:31;5.80;;;2.97;;
17832;SDS011;9041;49.718;21.798;2023-05-10T05:18:59;3.07;;;2.73;;
17832;SDS011;9041;49.718;21.798;2023-05-10T05:21:26;4.10;;;2.80;;
17832;SDS011;9041;49.718;21.798;2023-05-10T05:23:53;5.82;;;2.85;;
17832;SDS011;9041;49.718;21.798;2023-05-10T05:26:20;5.90;;;2.88;;
17832;SDS011;9041;49.718;21.798;2023-05-10T05:28:48;6.53;;;2.65;;
17832;SDS011;9041;49.718;21.798;2023-05-10T05:31:19;6.00;;;2.63;;
17832;SDS011;9041;49.718;21.798;2023-05-10T05:33:45;5.22;;;2.78;;
17832;SDS011;9041;49.718;21.798;2023-05-10T05:36:12;4.40;;;2.60;;
17832;SDS011;9041;49.718;21.798;2023-05-10T05:38:39;5.35;;;2.90;;
17832;SDS011;9041;49.718;21.798;2023-05-10T05:41:06;7.00;;;2.70;;
17832;SDS011;9041;49.718;21.798;2023-05-10T05:43:33;4.60;;;2.80;;
17832;SDS011;9041;49.718;21.798;2023-05-10T05:46:02;6.80;;;2.70;;
17832;SDS011;9041;49.718;21.798;2023-05-10T05:48:31;5.45;;;2.75;;
17832;SDS011;9041;49.718;21.798;2023-05-10T05:50:57;4.43;;;2.83;;
17832;SDS011;9041;49.718;21.798;2023-05-10T05:53:24;4.65;;;3.03;;
17832;SDS011;9041;49.718;21.798;2023-05-10T05:55:52;5.97;;;2.80;;
17832;SDS011;9041;49.718;21.798;2023-05-10T05:58:20;5.60;;;2.55;;
17832;SDS011;9041;49.718;21.798;2023-05-10T06:00:47;4.63;;;2.50;;
17832;SDS011;9041;49.718;21.798;2023-05-10T06:03:14;6.25;;;2.60;;
17832;SDS011;9041;49.718;21.798;2023-05-10T06:05:42;4.28;;;2.85;;
17832;SDS011;9041;49.718;21.798;2023-05-10T06:08:09;5.65;;;2.60;;
17832;SDS011;9041;49.718;21.798;2023-05-10T06:10:36;4.50;;;2.67;;
17832;SDS011;9041;49.718;21.798;2023-05-10T06:13:03;4.47;;;2.50;;
17832;SDS011;9041;49.718;21.798;2023-05-10T06:15:32;5.32;;;2.20;;
17832;SDS011;9041;49.718;21.798;2023-05-10T06:17:59;5.30;;;3.00;;
17832;SDS011;9041;49.718;21.798;2023-05-10T06:20:26;4.43;;;2.80;;
17832;SDS011;9041;49.718;21.798;2023-05-10T06:22:54;3.67;;;2.38;;
17832;SDS011;9041;49.718;21.798;2023-05-10T06:25:21;6.10;;;2.53;;
17832;SDS011;9041;49.718;21.798;2023-05-10T06:27:48;4.25;;;2.83;;
17832;SDS011;9041;49.718;21.798;2023-05-10T06:30:15;5.22;;;2.45;;
17832;SDS011;9041;49.718;21.798;2023-05-10T06:32:42;5.78;;;2.80;;
17832;SDS011;9041;49.718;21.798;2023-05-10T06:35:10;4.70;;;2.90;;
17832;SDS011;9041;49.718;21.798;2023-05-10T06:37:37;5.38;;;2.53;;
17832;SDS011;9041;49.718;21.798;2023-05-10T06:40:06;6.47;;;2.55;;
17832;SDS011;9041;49.718;21.798;2023-05-10T06:42:34;4.30;;;2.20;;
17832;SDS011;9041;49.718;21.798;2023-05-10T06:45:01;3.63;;;2.42;;
17832;SDS011;9041;49.718;21.798;2023-05-10T06:47:28;5.00;;;2.65;;
17832;SDS011;9041;49.718;21.798;2023-05-10T06:49:54;4.88;;;2.47;;
17832;SDS011;9041;49.718;21.798;2023-05-10T06:52:21;3.58;;;2.40;;
17832;SDS011;9041;49.718;21.798;2023-05-10T06:54:48;5.65;;;2.50;;
17832;SDS011;9041;49.718;21.798;2023-05-10T06:57:17;3.35;;;2.20;;
17832;SDS011;9041;49.718;21.798;2023-05-10T06:59:44;5.30;;;2.63;;
17832;SDS011;9041;49.718;21.798;2023-05-10T07:02:11;5.53;;;2.70;;
17832;SDS011;9041;49.718;21.798;2023-05-10T07:04:39;3.95;;;2.30;;
17832;SDS011;9041;49.718;21.798;2023-05-10T07:07:06;5.35;;;3.25;;
17832;SDS011;9041;49.718;21.798;2023-05-10T07:09:33;4.22;;;2.50;;
17832;SDS011;9041;49.718;21.798;2023-05-10T07:12:00;4.50;;;2.10;;
17832;SDS011;9041;49.718;21.798;2023-05-10T07:14:28;4.13;;;2.58;;
17832;SDS011;9041;49.718;21.798;2023-05-10T07:16:55;4.32;;;2.40;;
17832;SDS011;9041;49.718;21.798;2023-05-10T07:19:21;5.88;;;3.60;;
17832;SDS011;9041;49.718;21.798;2023-05-10T07:21:48;5.82;;;2.38;;
17832;SDS011;9041;49.718;21.798;2023-05-10T07:24:26;4.05;;;2.30;;
17832;SDS011;9041;49.718;21.798;2023-05-10T07:26:53;3.83;;;2.40;;
17832;SDS011;9041;49.718;21.798;2023-05-10T07:29:20;5.00;;;2.60;;
17832;SDS011;9041;49.718;21.798;2023-05-10T07:31:48;3.08;;;2.00;;
17832;SDS011;9041;49.718;21.798;2023-05-10T07:34:15;5.50;;;2.55;;
17832;SDS011;9041;49.718;21.798;2023-05-10T07:36:41;6.03;;;2.70;;
17832;SDS011;9041;49.718;21.798;2023-05-10T07:39:08;7.25;;;2.40;;
17832;SDS011;9041;49.718;21.798;2023-05-10T07:41:35;4.53;;;2.33;;
17832;SDS011;9041;49.718;21.798;2023-05-10T07:44:03;5.18;;;2.60;;
17832;SDS011;9041;49.718;21.798;2023-05-10T07:46:30;3.85;;;2.33;;
17832;SDS011;9041;49.718;21.798;2023-05-10T07:48:58;3.30;;;2.28;;
17832;SDS011;9041;49.718;21.798;2023-05-10T07:51:25;4.00;;;2.13;;
17832;SDS011;9041;49.718;21.798;2023-05-10T07:53:53;4.63;;;2.53;;
17832;SDS011;9041;49.718;21.798;2023-05-10T07:56:20;4.10;;;2.20;;
17832;SDS011;9041;49.718;21.798;2023-05-10T07:58:48;5.50;;;2.63;;
17832;SDS011;9041;49.718;21.798;2023-05-10T08:01:14;3.88;;;2.38;;
17832;SDS011;9041;49.718;21.798;2023-05-10T08:03:41;4.63;;;2.15;;
17832;SDS011;9041;49.718;21.798;2023-05-10T08:06:09;10.45;;;2.72;;
17832;SDS011;9041;49.718;21.798;2023-05-10T08:08:36;4.15;;;2.40;;
17832;SDS011;9041;49.718;21.798;2023-05-10T08:11:03;5.03;;;2.20;;
17832;SDS011;9041;49.718;21.798;2023-05-10T08:13:30;6.68;;;2.67;;
17832;SDS011;9041;49.718;21.798;2023-05-10T08:15:56;5.38;;;2.17;;
17832;SDS011;9041;49.718;21.798;2023-05-10T08:18:23;3.97;;;2.22;;
17832;SDS011;9041;49.718;21.798;2023-05-10T08:20:50;6.03;;;2.75;;
17832;SDS011;9041;49.718;21.798;2023-05-10T08:23:18;4.82;;;2.30;;
17832;SDS011;9041;49.718;21.798;2023-05-10T08:25:45;3.60;;;2.40;;
17832;SDS011;9041;49.718;21.798;2023-05-10T08:28:12;4.40;;;2.45;;
17832;SDS011;9041;49.718;21.798;2023-05-10T08:30:39;3.90;;;2.53;;
17832;SDS011;9041;49.718;21.798;2023-05-10T08:33:07;2.80;;;1.90;;
17832;SDS011;9041;49.718;21.798;2023-05-10T08:35:34;2.95;;;1.75;;
17832;SDS011;9041;49.718;21.798;2023-05-10T08:38:00;4.43;;;1.92;;
17832;SDS011;9041;49.718;21.798;2023-05-10T08:40:29;11.65;;;2.40;;
17832;SDS011;9041;49.718;21.798;2023-05-10T08:42:57;2.72;;;1.85;;
17832;SDS011;9041;49.718;21.798;2023-05-10T08:45:27;4.82;;;2.20;;
17832;SDS011;9041;49.718;21.798;2023-05-10T08:47:58;3.40;;;2.20;;
17832;SDS011;9041;49.718;21.798;2023-05-10T08:50:26;6.20;;;2.63;;
17832;SDS011;9041;49.718;21.798;2023-05-10T08:52:53;1.83;;;1.50;;
17832;SDS011;9041;49.718;21.798;2023-05-10T08:55:22;4.90;;;2.33;;
17832;SDS011;9041;49.718;21.798;2023-05-10T08:57:50;7.50;;;3.10;;
17832;SDS011;9041;49.718;21.798;2023-05-10T09:00:18;13.75;;;2.70;;
17832;SDS011;9041;49.718;21.798;2023-05-10T09:02:45;3.38;;;2.10;;
17832;SDS011;9041;49.718;21.798;2023-05-10T09:05:14;6.82;;;1.88;;
17832;SDS011;9041;49.718;21.798;2023-05-10T09:07:42;2.90;;;2.05;;
17832;SDS011;9041;49.718;21.798;2023-05-10T09:10:09;3.80;;;2.10;;
17832;SDS011;9041;49.718;21.798;2023-05-10T09:12:58;18.23;;;2.63;;
17832;SDS011;9041;49.718;21.798;2023-05-10T09:15:25;34.35;;;4.75;;
17832;SDS011;9041;49.718;21.798;2023-05-10T09:17:52;2.33;;;1.83;;
17832;SDS011;9041;49.718;21.798;2023-05-10T09:20:19;2.88;;;1.90;;
17832;SDS011;9041;49.718;21.798;2023-05-10T09:22:46;5.05;;;2.00;;
17832;SDS011;9041;49.718;21.798;2023-05-10T09:25:14;5.47;;;2.90;;
17832;SDS011;9041;49.718;21.798;2023-05-10T09:27:43;6.40;;;2.15;;
17832;SDS011;9041;49.718;21.798;2023-05-10T09:30:16;3.67;;;2.33;;
17832;SDS011;9041;49.718;21.798;2023-05-10T09:32:44;3.58;;;2.15;;
17832;SDS011;9041;49.718;21.798;2023-05-10T09:35:12;5.95;;;2.15;;
17832;SDS011;9041;49.718;21.798;2023-05-10T09:37:40;4.72;;;2.40;;
17832;SDS011;9041;49.718;21.798;2023-05-10T09:40:11;3.40;;;2.10;;
17832;SDS011;9041;49.718;21.798;2023-05-10T09:42:38;12.70;;;3.03;;
17832;SDS011;9041;49.718;21.798;2023-05-10T09:45:06;5.70;;;2.10;;
17832;SDS011;9041;49.718;21.798;2023-05-10T09:47:35;3.60;;;2.22;;
17832;SDS011;9041;49.718;21.798;2023-05-10T09:50:02;4.53;;;2.30;;
17832;SDS011;9041;49.718;21.798;2023-05-10T09:52:30;3.75;;;2.33;;
17832;SDS011;9041;49.718;21.798;2023-05-10T09:55:12;4.13;;;2.13;;
17832;SDS011;9041;49.718;21.798;2023-05-10T09:57:39;2.92;;;2.00;;
17832;SDS011;9041;49.718;21.798;2023-05-10T10:00:06;3.42;;;2.03;;
17832;SDS011;9041;49.718;21.798;2023-05-10T10:02:36;4.15;;;2.20;;
17832;SDS011;9041;49.718;21.798;2023-05-10T10:05:03;3.72;;;2.03;;
17832;SDS011;9041;49.718;21.798;2023-05-10T10:07:31;5.85;;;2.30;;
17832;SDS011;9041;49.718;21.798;2023-05-10T10:09:58;4.47;;;1.80;;
17832;SDS011;9041;49.718;21.798;2023-05-10T10:12:25;4.00;;;2.10;;
17832;SDS011;9041;49.718;21.798;2023-05-10T10:14:53;4.70;;;2.90;;
17832;SDS011;9041;49.718;21.798;2023-05-10T10:17:20;3.63;;;2.13;;
17832;SDS011;9041;49.718;21.798;2023-05-10T10:19:49;2.83;;;1.90;;
17832;SDS011;9041;49.718;21.798;2023-05-10T10:22:16;4.97;;;1.95;;
17832;SDS011;9041;49.718;21.798;2023-05-10T10:24:43;5.03;;;2.20;;
17832;SDS011;9041;49.718;21.798;2023-05-10T10:27:14;2.80;;;2.20;;
17832;SDS011;9041;49.718;21.798;2023-05-10T10:30:03;3.47;;;2.30;;
17832;SDS011;9041;49.718;21.798;2023-05-10T10:32:38;3.80;;;1.98;;
17832;SDS011;9041;49.718;21.798;2023-05-10T10:35:14;5.80;;;2.22;;
17832;SDS011;9041;49.718;21.798;2023-05-10T10:37:43;4.32;;;1.85;;
17832;SDS011;9041;49.718;21.798;2023-05-10T10:40:23;5.57;;;1.75;;
17832;SDS011;9041;49.718;21.798;2023-05-10T10:42:54;2.60;;;1.98;;
17832;SDS011;9041;49.718;21.798;2023-05-10T10:45:21;2.90;;;1.95;;
17832;SDS011;9041;49.718;21.798;2023-05-10T10:47:53;2.90;;;1.92;;
17832;SDS011;9041;49.718;21.798;2023-05-10T10:50:44;2.85;;;1.83;;
17832;SDS011;9041;49.718;21.798;2023-05-10T10:53:12;3.45;;;1.85;;
17832;SDS011;9041;49.718;21.798;2023-05-10T10:55:44;4.38;;;2.50;;
17832;SDS011;9041;49.718;21.798;2023-05-10T10:58:12;7.50;;;2.63;;
17832;SDS011;9041;49.718;21.798;2023-05-10T11:01:08;5.10;;;2.20;;
17832;SDS011;9041;49.718;21.798;2023-05-10T11:03:36;1.70;;;1.60;;
17832;SDS011;9041;49.718;21.798;2023-05-10T11:06:05;6.40;;;1.77;;
17832;SDS011;9041;49.718;21.798;2023-05-10T11:08:33;4.35;;;2.08;;
17832;SDS011;9041;49.718;21.798;2023-05-10T11:11:09;2.75;;;1.80;;
17832;SDS011;9041;49.718;21.798;2023-05-10T11:13:40;5.35;;;2.20;;
17832;SDS011;9041;49.718;21.798;2023-05-10T11:16:10;6.85;;;2.22;;
17832;SDS011;9041;49.718;21.798;2023-05-10T11:18:51;7.15;;;2.13;;
17832;SDS011;9041;49.718;21.798;2023-05-10T11:21:21;4.95;;;1.88;;
17832;SDS011;9041;49.718;21.798;2023-05-10T11:23:48;2.63;;;1.73;;
17832;SDS011;9041;49.718;21.798;2023-05-10T11:26:16;3.80;;;1.83;;
17832;SDS011;9041;49.718;21.798;2023-05-10T11:28:44;5.13;;;1.73;;
17832;SDS011;9041;49.718;21.798;2023-05-10T11:31:13;4.18;;;1.90;;
17832;SDS011;9041;49.718;21.798;2023-05-10T11:33:43;2.10;;;1.80;;
17832;SDS011;9041;49.718;21.798;2023-05-10T11:36:11;3.10;;;2.03;;
17832;SDS011;9041;49.718;21.798;2023-05-10T11:38:39;6.97;;;2.20;;
17832;SDS011;9041;49.718;21.798;2023-05-10T11:41:07;5.57;;;2.05;;
17832;SDS011;9041;49.718;21.798;2023-05-10T11:43:35;9.77;;;2.05;;
17832;SDS011;9041;49.718;21.798;2023-05-10T11:46:03;2.67;;;1.80;;
17832;SDS011;9041;49.718;21.798;2023-05-10T11:48:30;5.47;;;1.90;;
17832;SDS011;9041;49.718;21.798;2023-05-10T11:50:57;2.53;;;1.65;;
17832;SDS011;9041;49.718;21.798;2023-05-10T11:53:25;2.55;;;1.80;;
17832;SDS011;9041;49.718;21.798;2023-05-10T11:55:53;3.42;;;1.73;;
17832;SDS011;9041;49.718;21.798;2023-05-10T11:58:20;2.97;;;1.90;;
17832;SDS011;9041;49.718;21.798;2023-05-10T12:00:48;5.55;;;1.88;;
17832;SDS011;9041;49.718;21.798;2023-05-10T12:03:15;6.70;;;2.20;;
17832;SDS011;9041;49.718;21.798;2023-05-10T12:05:42;1.92;;;1.70;;
17832;SDS011;9041;49.718;21.798;2023-05-10T12:08:12;4.65;;;1.80;;
17832;SDS011;9041;49.718;21.798;2023-05-10T12:10:39;2.20;;;1.80;;
17832;SDS011;9041;49.718;21.798;2023-05-10T12:13:11;2.20;;;1.65;;
17832;SDS011;9041;49.718;21.798;2023-05-10T12:15:40;3.17;;;1.80;;
17832;SDS011;9041;49.718;21.798;2023-05-10T12:18:08;4.28;;;1.75;;
17832;SDS011;9041;49.718;21.798;2023-05-10T12:20:35;2.33;;;1.55;;
17832;SDS011;9041;49.718;21.798;2023-05-10T12:23:02;2.08;;;1.60;;
17832;SDS011;9041;49.718;21.798;2023-05-10T12:25:31;4.07;;;1.75;;
17832;SDS011;9041;49.718;21.798;2023-05-10T12:27:59;4.35;;;1.70;;
17832;SDS011;9041;49.718;21.798;2023-05-10T12:30:28;3.88;;;1.77;;
17832;SDS011;9041;49.718;21.798;2023-05-10T12:32:59;2.15;;;1.50;;
17832;SDS011;9041;49.718;21.798;2023-05-10T12:35:29;3.20;;;1.70;;
17832;SDS011;9041;49.718;21.798;2023-05-10T12:37:57;3.05;;;1.77;;
17832;SDS011;9041;49.718;21.798;2023-05-10T12:40:24;2.33;;;1.88;;
17832;SDS011;9041;49.718;21.798;2023-05-10T12:42:50;3.70;;;1.60;;
17832;SDS011;9041;49.718;21.798;2023-05-10T12:45:17;4.22;;;1.40;;
17832;SDS011;9041;49.718;21.798;2023-05-10T12:47:46;2.42;;;1.52;;
17832;SDS011;9041;49.718;21.798;2023-05-10T12:50:13;3.33;;;1.75;;
17832;SDS011;9041;49.718;21.798;2023-05-10T12:52:40;2.92;;;1.80;;
17832;SDS011;9041;49.718;21.798;2023-05-10T12:55:07;2.38;;;1.77;;
17832;SDS011;9041;49.718;21.798;2023-05-10T12:57:34;2.88;;;1.83;;
17832;SDS011;9041;49.718;21.798;2023-05-10T13:00:01;2.15;;;1.65;;
17832;SDS011;9041;49.718;21.798;2023-05-10T13:02:28;3.60;;;1.92;;
17832;SDS011;9041;49.718;21.798;2023-05-10T13:04:56;2.10;;;1.67;;
17832;SDS011;9041;49.718;21.798;2023-05-10T13:07:22;4.95;;;1.92;;
17832;SDS011;9041;49.718;21.798;2023-05-10T13:09:49;7.20;;;2.20;;
17832;SDS011;9041;49.718;21.798;2023-05-10T13:12:16;3.53;;;2.40;;
17832;SDS011;9041;49.718;21.798;2023-05-10T13:14:43;7.47;;;2.08;;
17832;SDS011;9041;49.718;21.798;2023-05-10T13:17:10;1.88;;;1.70;;
17832;SDS011;9041;49.718;21.798;2023-05-10T13:19:36;4.30;;;1.95;;
17832;SDS011;9041;49.718;21.798;2023-05-10T13:22:04;3.72;;;1.92;;
17832;SDS011;9041;49.718;21.798;2023-05-10T13:24:31;3.90;;;1.67;;
17832;SDS011;9041;49.718;21.798;2023-05-10T13:26:58;2.65;;;1.80;;
17832;SDS011;9041;49.718;21.798;2023-05-10T13:29:25;4.35;;;1.73;;
17832;SDS011;9041;49.718;21.798;2023-05-10T13:31:51;2.42;;;1.70;;
17832;SDS011;9041;49.718;21.798;2023-05-10T13:34:18;5.97;;;1.98;;
17832;SDS011;9041;49.718;21.798;2023-05-10T13:36:46;3.22;;;1.60;;
17832;SDS011;9041;49.718;21.798;2023-05-10T13:39:15;2.78;;;1.90;;
17832;SDS011;9041;49.718;21.798;2023-05-10T13:41:42;2.95;;;2.00;;
17832;SDS011;9041;49.718;21.798;2023-05-10T13:44:11;4.47;;;2.00;;
17832;SDS011;9041;49.718;21.798;2023-05-10T13:46:38;2.90;;;1.88;;
17832;SDS011;9041;49.718;21.798;2023-05-10T13:49:05;5.32;;;2.00;;
17832;SDS011;9041;49.718;21.798;2023-05-10T13:51:32;9.10;;;2.70;;
17832;SDS011;9041;49.718;21.798;2023-05-10T13:53:59;4.22;;;1.88;;
17832;SDS011;9041;49.718;21.798;2023-05-10T13:56:28;4.43;;;1.73;;
17832;SDS011;9041;49.718;21.798;2023-05-10T13:58:55;4.15;;;2.08;;
17832;SDS011;9041;49.718;21.798;2023-05-10T14:01:22;4.75;;;2.20;;
17832;SDS011;9041;49.718;21.798;2023-05-10T14:03:49;5.05;;;2.03;;
17832;SDS011;9041;49.718;21.798;2023-05-10T14:06:16;2.83;;;1.83;;
17832;SDS011;9041;49.718;21.798;2023-05-10T14:08:43;4.93;;;2.33;;
17832;SDS011;9041;49.718;21.798;2023-05-10T14:11:10;4.35;;;2.08;;
17832;SDS011;9041;49.718;21.798;2023-05-10T14:13:39;4.13;;;1.90;;
17832;SDS011;9041;49.718;21.798;2023-05-10T14:16:06;2.65;;;1.85;;
17832;SDS011;9041;49.718;21.798;2023-05-10T14:18:33;3.78;;;2.38;;
17832;SDS011;9041;49.718;21.798;2023-05-10T14:21:01;4.63;;;2.30;;
17832;SDS011;9041;49.718;21.798;2023-05-10T14:23:28;4.10;;;2.00;;
17832;SDS011;9041;49.718;21.798;2023-05-10T14:25:55;5.68;;;2.50;;
17832;SDS011;9041;49.718;21.798;2023-05-10T14:28:22;3.58;;;1.98;;
17832;SDS011;9041;49.718;21.798;2023-05-10T14:30:51;2.35;;;1.88;;
17832;SDS011;9041;49.718;21.798;2023-05-10T14:33:18;6.53;;;2.60;;
17832;SDS011;9041;49.718;21.798;2023-05-10T14:35:45;5.60;;;2.30;;
17832;SDS011;9041;49.718;21.798;2023-05-10T14:38:12;2.50;;;1.98;;
17832;SDS011;9041;49.718;21.798;2023-05-10T14:40:39;2.53;;;1.73;;
17832;SDS011;9041;49.718;21.798;2023-05-10T14:43:06;4.13;;;1.70;;
17832;SDS011;9041;49.718;21.798;2023-05-10T14:45:33;3.80;;;2.08;;
17832;SDS011;9041;49.718;21.798;2023-05-10T14:48:01;6.10;;;2.25;;
17832;SDS011;9041;49.718;21.798;2023-05-10T14:50:29;4.05;;;1.85;;
17832;SDS011;9041;49.718;21.798;2023-05-10T14:52:56;3.47;;;2.30;;
17832;SDS011;9041;49.718;21.798;2023-05-10T14:55:24;3.67;;;2.10;;